Pierre Regional Airport
KPIR : now visible

Airfield :











YOU CAN JOIN US ON...

 
LOGIN :

Register | Disclaimer

   EN    FR    IT 

 









Legend :    VFR   Marginal VFR   IFR   Intensive IFR   Very Intensive IFR
Visi :
Ceiling :
>= 8 km
>= 3000ft
5 to 8 km
1000 to 3000 ft
1500m to 5 km
500 to 1000 ft
800 to 1500m
200 to 500 ft
< 800m
< 200 ft
Symbols :   Thunderstorms  Fog  Heavy snow  Heavy precipitations  Wind > 20 kt






- Airport Elevation : 1744 ft
- IATA code : PIR


KPIR - Pierre Regional

CURRENT METAR :
  • 261453Z AUTO 25005KT 10SM CLR M02/M05 A2991 RMK AO2 SLP152 T10221050 52006

EXPIRED METARs :
  • 261353Z AUTO 28006KT 10SM CLR M03/M06 A2991 RMK AO2 SLP148 T10281056
  • 261253Z AUTO 00000KT 10SM CLR M03/M06 A2990 RMK AO2 SLP146 T10281056
  • 261153Z AUTO 26007KT 10SM CLR M03/M05 A2989 RMK AO2 SLP144 I6000 T10331050 11006 21044 58004

TAF KPIR
Valid from the 26 at 12:00 until the 27 at 12:00 UTC


261125Z 2612/2712 26008KT P6SM SKC
FM262100 33010KT P6SM OVC015



MET'MAP, your aeronautical weather chart ! - Copyright ORBIFLY December 2007 - Disclaimer

ORBIFLY MET'MAP TEAM :

Programming & Development : Alexandra Zaïnal
Concept & original design : Baudouin d'Aumeries
Assistance for programming : Marc-Olivier Méhu
Technical & hardware support : Manuel Goepfert

Contact : metmap@orbifly.com




SOURCES & CREDITS :

   NOAA       Earth
Advisory